sensor_id;sensor_type;location;lat;lon;timestamp;pressure;altitude;pressure_sealevel;temperature;humidity
70841;BME280;58465;51.534;9.934;2022-12-07T00:01:57;99879.59;;;3.93;78.46
70841;BME280;58465;51.534;9.934;2022-12-07T00:04:24;99877.81;;;3.91;78.64
70841;BME280;58465;51.534;9.934;2022-12-07T00:06:52;99879.56;;;3.95;78.27
70841;BME280;58465;51.534;9.934;2022-12-07T00:09:18;99883.97;;;3.96;78.34
70841;BME280;58465;51.534;9.934;2022-12-07T00:11:44;99879.59;;;3.93;78.52
70841;BME280;58465;51.534;9.934;2022-12-07T00:14:14;99878.69;;;3.96;78.70
70841;BME280;58465;51.534;9.934;2022-12-07T00:16:40;99876.03;;;3.90;78.68
70841;BME280;58465;51.534;9.934;2022-12-07T00:19:05;99864.63;;;4.00;78.54
70841;BME280;58465;51.534;9.934;2022-12-07T00:21:32;99874.28;;;3.95;78.71
70841;BME280;58465;51.534;9.934;2022-12-07T00:23:58;99871.66;;;4.02;78.62
70841;BME280;58465;51.534;9.934;2022-12-07T00:26:28;99869.00;;;4.04;78.36
70841;BME280;58465;51.534;9.934;2022-12-07T00:28:57;99862.88;;;4.03;78.53
70841;BME280;58465;51.534;9.934;2022-12-07T00:31:25;99862.84;;;4.00;78.69
70841;BME280;58465;51.534;9.934;2022-12-07T00:33:51;99852.28;;;4.03;78.63
70841;BME280;58465;51.534;9.934;2022-12-07T00:36:19;99854.03;;;4.04;78.67
70841;BME280;58465;51.534;9.934;2022-12-07T00:38:44;99852.28;;;4.08;78.56
70841;BME280;58465;51.534;9.934;2022-12-07T00:41:20;99846.09;;;4.04;78.49
70841;BME280;58465;51.534;9.934;2022-12-07T00:43:47;99850.50;;;4.15;78.48
70841;BME280;58465;51.534;9.934;2022-12-07T00:46:13;99854.94;;;4.11;78.82
70841;BME280;58465;51.534;9.934;2022-12-07T00:48:39;99840.84;;;4.10;78.83
70841;BME280;58465;51.534;9.934;2022-12-07T00:51:05;99846.13;;;4.01;79.23
70841;BME280;58465;51.534;9.934;2022-12-07T00:53:34;99839.09;;;4.03;79.30
70841;BME280;58465;51.534;9.934;2022-12-07T00:56:05;99833.78;;;3.99;79.48
70841;BME280;58465;51.534;9.934;2022-12-07T00:58:30;99831.16;;;4.03;79.40
70841;BME280;58465;51.534;9.934;2022-12-07T01:00:59;99828.47;;;4.05;79.43
70841;BME280;58465;51.534;9.934;2022-12-07T01:03:25;99826.75;;;4.10;79.64
70841;BME280;58465;51.534;9.934;2022-12-07T01:05:52;99824.09;;;4.13;79.64
70841;BME280;58465;51.534;9.934;2022-12-07T01:08:18;99824.09;;;4.12;79.60
70841;BME280;58465;51.534;9.934;2022-12-07T01:10:44;99817.03;;;4.06;79.67
70841;BME280;58465;51.534;9.934;2022-12-07T01:13:09;99822.34;;;4.09;79.36
70841;BME280;58465;51.534;9.934;2022-12-07T01:15:39;99821.47;;;4.10;79.72
70841;BME280;58465;51.534;9.934;2022-12-07T01:18:04;99808.22;;;4.15;79.76
70841;BME280;58465;51.534;9.934;2022-12-07T01:20:29;99817.91;;;4.17;79.86
70841;BME280;58465;51.534;9.934;2022-12-07T01:22:54;99812.63;;;4.29;79.27
70841;BME280;58465;51.534;9.934;2022-12-07T01:25:20;99806.50;;;4.03;79.56
70841;BME280;58465;51.534;9.934;2022-12-07T01:27:45;99813.53;;;3.92;80.36
70841;BME280;58465;51.534;9.934;2022-12-07T01:30:11;99807.34;;;3.99;80.48
70841;BME280;58465;51.534;9.934;2022-12-07T01:32:36;99810.00;;;3.91;80.67
70841;BME280;58465;51.534;9.934;2022-12-07T01:35:02;99806.47;;;3.97;80.69
70841;BME280;58465;51.534;9.934;2022-12-07T01:37:27;99799.41;;;3.96;81.08
70841;BME280;58465;51.534;9.934;2022-12-07T01:39:52;99802.94;;;3.96;80.94
70841;BME280;58465;51.534;9.934;2022-12-07T01:42:18;99799.44;;;3.90;81.27
70841;BME280;58465;51.534;9.934;2022-12-07T01:47:55;99810.00;;;4.00;81.24
70841;BME280;58465;51.534;9.934;2022-12-07T01:50:24;99820.56;;;4.02;81.30
70841;BME280;58465;51.534;9.934;2022-12-07T01:52:52;99820.56;;;3.93;81.39
70841;BME280;58465;51.534;9.934;2022-12-07T01:55:18;99811.75;;;4.00;81.30
70841;BME280;58465;51.534;9.934;2022-12-07T01:57:48;99817.94;;;4.13;81.31
70841;BME280;58465;51.534;9.934;2022-12-07T02:00:15;99814.41;;;4.17;81.46
70841;BME280;58465;51.534;9.934;2022-12-07T02:02:48;99809.09;;;4.17;81.30
70841;BME280;58465;51.534;9.934;2022-12-07T02:05:16;99803.81;;;4.15;81.42
70841;BME280;58465;51.534;9.934;2022-12-07T02:07:42;99796.78;;;4.13;81.38
70841;BME280;58465;51.534;9.934;2022-12-07T02:10:17;99802.94;;;4.18;81.19
70841;BME280;58465;51.534;9.934;2022-12-07T02:12:44;99802.06;;;4.16;81.49
70841;BME280;58465;51.534;9.934;2022-12-07T02:15:12;99790.59;;;4.29;81.24
70841;BME280;58465;51.534;9.934;2022-12-07T02:17:55;99789.69;;;4.36;80.99
70841;BME280;58465;51.534;9.934;2022-12-07T02:20:30;99782.63;;;4.44;80.78
70841;BME280;58465;51.534;9.934;2022-12-07T02:23:27;99786.16;;;4.49;80.62
70841;BME280;58465;51.534;9.934;2022-12-07T02:26:18;99782.66;;;4.38;80.71
70841;BME280;58465;51.534;9.934;2022-12-07T02:32:03;99781.75;;;4.34;80.74
70841;BME280;58465;51.534;9.934;2022-12-07T02:37:16;99777.41;;;4.18;81.48
70841;BME280;58465;51.534;9.934;2022-12-07T02:39:48;99769.44;;;4.30;81.50
70841;BME280;58465;51.534;9.934;2022-12-07T02:42:25;99765.88;;;4.48;80.83
70841;BME280;58465;51.534;9.934;2022-12-07T02:44:51;99759.72;;;4.46;80.56
70841;BME280;58465;51.534;9.934;2022-12-07T02:47:19;99770.28;;;4.46;80.65
70841;BME280;58465;51.534;9.934;2022-12-07T02:49:45;99770.28;;;4.46;80.92
70841;BME280;58465;51.534;9.934;2022-12-07T02:52:11;99766.78;;;4.48;80.92
70841;BME280;58465;51.534;9.934;2022-12-07T02:54:36;99767.66;;;4.49;80.97
70841;BME280;58465;51.534;9.934;2022-12-07T03:08:06;99757.06;;;4.44;81.84
70841;BME280;58465;51.534;9.934;2022-12-07T03:16:36;99753.44;;;4.76;81.17
70841;BME280;58465;51.534;9.934;2022-12-07T03:19:11;99756.94;;;4.81;80.83
70841;BME280;58465;51.534;9.934;2022-12-07T03:21:46;99750.88;;;4.59;81.40
70841;BME280;58465;51.534;9.934;2022-12-07T03:24:21;99755.25;;;4.65;81.54
70841;BME280;58465;51.534;9.934;2022-12-07T03:27:03;99742.94;;;4.58;81.92
70841;BME280;58465;51.534;9.934;2022-12-07T03:29:37;99753.53;;;4.56;82.04
70841;BME280;58465;51.534;9.934;2022-12-07T03:32:14;99750.00;;;4.54;82.37
70841;BME280;58465;51.534;9.934;2022-12-07T03:34:47;99743.81;;;4.55;82.42
70841;BME280;58465;51.534;9.934;2022-12-07T03:37:34;99744.69;;;4.56;82.49
70841;BME280;58465;51.534;9.934;2022-12-07T03:40:26;99734.97;;;4.64;82.34
70841;BME280;58465;51.534;9.934;2022-12-07T03:42:55;99745.53;;;4.62;82.21
70841;BME280;58465;51.534;9.934;2022-12-07T03:45:25;99747.31;;;4.65;82.14
70841;BME280;58465;51.534;9.934;2022-12-07T03:48:06;99741.13;;;4.69;82.37
70841;BME280;58465;51.534;9.934;2022-12-07T03:53:42;99744.63;;;4.74;82.42
70841;BME280;58465;51.534;9.934;2022-12-07T03:56:09;99744.66;;;4.68;82.21
70841;BME280;58465;51.534;9.934;2022-12-07T03:58:36;99742.94;;;4.61;82.71
70841;BME280;58465;51.534;9.934;2022-12-07T04:01:02;99746.44;;;4.69;82.60
70841;BME280;58465;51.534;9.934;2022-12-07T04:03:27;99744.66;;;4.71;82.55
70841;BME280;58465;51.534;9.934;2022-12-07T04:05:53;99746.41;;;4.72;82.39
70841;BME280;58465;51.534;9.934;2022-12-07T04:08:18;99751.72;;;4.67;82.59
70841;BME280;58465;51.534;9.934;2022-12-07T04:10:43;99755.22;;;4.74;82.57
70841;BME280;58465;51.534;9.934;2022-12-07T04:13:09;99751.69;;;4.78;82.28
70841;BME280;58465;51.534;9.934;2022-12-07T04:15:34;99751.66;;;4.81;82.26
70841;BME280;58465;51.534;9.934;2022-12-07T04:17:59;99739.34;;;4.77;81.94
70841;BME280;58465;51.534;9.934;2022-12-07T04:20:25;99745.50;;;4.73;81.90
70841;BME280;58465;51.534;9.934;2022-12-07T04:22:50;99743.78;;;4.70;82.15
70841;BME280;58465;51.534;9.934;2022-12-07T04:25:15;99736.81;;;4.50;82.38
70841;BME280;58465;51.534;9.934;2022-12-07T04:27:41;99735.03;;;4.45;82.43
70841;BME280;58465;51.534;9.934;2022-12-07T04:30:06;99734.16;;;4.43;82.63
70841;BME280;58465;51.534;9.934;2022-12-07T04:32:32;99737.69;;;4.48;82.86
70841;BME280;58465;51.534;9.934;2022-12-07T04:34:57;99736.78;;;4.43;82.86
70841;BME280;58465;51.534;9.934;2022-12-07T04:37:23;99731.53;;;4.33;82.13
70841;BME280;58465;51.534;9.934;2022-12-07T04:39:49;99736.84;;;4.16;81.88
70841;BME280;58465;51.534;9.934;2022-12-07T04:42:14;99743.91;;;4.05;82.44
70841;BME280;58465;51.534;9.934;2022-12-07T04:44:39;99746.59;;;3.99;82.98
70841;BME280;58465;51.534;9.934;2022-12-07T04:47:04;99748.34;;;4.09;83.54
70841;BME280;58465;51.534;9.934;2022-12-07T04:49:30;99749.19;;;4.23;83.86
70841;BME280;58465;51.534;9.934;2022-12-07T04:51:55;99745.63;;;4.35;84.13
70841;BME280;58465;51.534;9.934;2022-12-07T04:54:21;99744.72;;;4.46;83.95
70841;BME280;58465;51.534;9.934;2022-12-07T04:56:46;99732.38;;;4.48;83.72
70841;BME280;58465;51.534;9.934;2022-12-07T04:59:13;99738.56;;;4.43;82.98
70841;BME280;58465;51.534;9.934;2022-12-07T05:01:39;99743.00;;;4.39;83.12
70841;BME280;58465;51.534;9.934;2022-12-07T05:04:04;99745.63;;;4.47;83.29
70841;BME280;58465;51.534;9.934;2022-12-07T05:06:29;99742.94;;;4.53;83.35
70841;BME280;58465;51.534;9.934;2022-12-07T05:08:55;99736.78;;;4.56;83.60
70841;BME280;58465;51.534;9.934;2022-12-07T05:11:20;99744.66;;;4.63;83.54
70841;BME280;58465;51.534;9.934;2022-12-07T05:16:30;99741.13;;;4.70;83.14
70841;BME280;58465;51.534;9.934;2022-12-07T05:18:55;99745.50;;;4.76;82.99
70841;BME280;58465;51.534;9.934;2022-12-07T05:21:21;99736.69;;;4.75;82.90
70841;BME280;58465;51.534;9.934;2022-12-07T05:23:46;99734.94;;;4.73;82.60
70841;BME280;58465;51.534;9.934;2022-12-07T05:26:11;99736.72;;;4.68;82.27
70841;BME280;58465;51.534;9.934;2022-12-07T05:28:37;99734.13;;;4.57;82.00
70841;BME280;58465;51.534;9.934;2022-12-07T05:31:02;99731.50;;;4.50;81.99
70841;BME280;58465;51.534;9.934;2022-12-07T05:33:28;99732.38;;;4.48;82.28
70841;BME280;58465;51.534;9.934;2022-12-07T05:35:53;99727.97;;;4.43;82.04
70841;BME280;58465;51.534;9.934;2022-12-07T05:38:18;99732.41;;;4.39;82.65
70841;BME280;58465;51.534;9.934;2022-12-07T05:40:44;99729.75;;;4.48;82.39
70841;BME280;58465;51.534;9.934;2022-12-07T05:43:10;99724.41;;;4.55;82.56
70841;BME280;58465;51.534;9.934;2022-12-07T05:45:35;99737.66;;;4.61;82.82
70841;BME280;58465;51.534;9.934;2022-12-07T05:48:00;99730.56;;;4.63;82.64
70841;BME280;58465;51.534;9.934;2022-12-07T05:50:26;99732.31;;;4.67;82.36
70841;BME280;58465;51.534;9.934;2022-12-07T05:52:52;99728.78;;;4.68;81.95
70841;BME280;58465;51.534;9.934;2022-12-07T05:55:18;99719.97;;;4.69;81.67
70841;BME280;58465;51.534;9.934;2022-12-07T05:57:43;99718.22;;;4.68;81.36
70841;BME280;58465;51.534;9.934;2022-12-07T06:00:28;99719.13;;;4.55;81.40
70841;BME280;58465;51.534;9.934;2022-12-07T06:02:53;99721.81;;;4.48;81.52
70841;BME280;58465;51.534;9.934;2022-12-07T06:05:19;99724.47;;;4.52;81.84
70841;BME280;58465;51.534;9.934;2022-12-07T06:07:44;99718.25;;;4.59;81.88
70841;BME280;58465;51.534;9.934;2022-12-07T06:10:09;99712.94;;;4.62;81.44
70841;BME280;58465;51.534;9.934;2022-12-07T06:12:35;99717.34;;;4.67;81.14
70841;BME280;58465;51.534;9.934;2022-12-07T06:15:00;99705.88;;;4.62;81.17
70841;BME280;58465;51.534;9.934;2022-12-07T06:17:26;99696.22;;;4.58;81.26
70841;BME280;58465;51.534;9.934;2022-12-07T06:19:51;99705.03;;;4.56;81.26
70841;BME280;58465;51.534;9.934;2022-12-07T06:22:17;99707.66;;;4.54;81.17
70841;BME280;58465;51.534;9.934;2022-12-07T06:24:43;99708.59;;;4.48;81.33
70841;BME280;58465;51.534;9.934;2022-12-07T06:27:09;99709.44;;;4.54;81.61
70841;BME280;58465;51.534;9.934;2022-12-07T06:29:35;99708.59;;;4.50;80.78
70841;BME280;58465;51.534;9.934;2022-12-07T06:32:00;99713.88;;;4.47;81.33
70841;BME280;58465;51.534;9.934;2022-12-07T06:34:26;99712.97;;;4.56;81.35
70841;BME280;58465;51.534;9.934;2022-12-07T06:36:52;99715.59;;;4.57;80.97
70841;BME280;58465;51.534;9.934;2022-12-07T06:39:21;99704.16;;;4.57;80.56
70841;BME280;58465;51.534;9.934;2022-12-07T06:41:47;99703.31;;;4.50;80.48
70841;BME280;58465;51.534;9.934;2022-12-07T06:44:13;99713.88;;;4.47;80.55
70841;BME280;58465;51.534;9.934;2022-12-07T06:46:38;99712.13;;;4.51;80.76
70841;BME280;58465;51.534;9.934;2022-12-07T06:49:04;99717.38;;;4.52;80.68
70841;BME280;58465;51.534;9.934;2022-12-07T06:51:31;99720.00;;;4.58;80.57
70841;BME280;58465;51.534;9.934;2022-12-07T06:53:56;99713.81;;;4.65;80.62
70841;BME280;58465;51.534;9.934;2022-12-07T06:56:21;99718.22;;;4.69;80.27
70841;BME280;58465;51.534;9.934;2022-12-07T06:58:48;99712.94;;;4.66;80.36
70841;BME280;58465;51.534;9.934;2022-12-07T07:01:15;99716.44;;;4.70;80.19
70841;BME280;58465;51.534;9.934;2022-12-07T07:03:42;99718.22;;;4.68;80.37
70841;BME280;58465;51.534;9.934;2022-12-07T07:06:08;99707.63;;;4.71;80.20
70841;BME280;58465;51.534;9.934;2022-12-07T07:08:34;99722.59;;;4.73;80.25
70841;BME280;58465;51.534;9.934;2022-12-07T07:11:00;99722.63;;;4.70;80.55
70841;BME280;58465;51.534;9.934;2022-12-07T07:13:26;99716.41;;;4.73;80.27
70841;BME280;58465;51.534;9.934;2022-12-07T07:15:52;99724.34;;;4.74;80.20
70841;BME280;58465;51.534;9.934;2022-12-07T07:18:17;99724.38;;;4.70;80.27
70841;BME280;58465;51.534;9.934;2022-12-07T07:20:42;99731.44;;;4.63;80.74
70841;BME280;58465;51.534;9.934;2022-12-07T07:23:07;99732.31;;;4.64;80.91
70841;BME280;58465;51.534;9.934;2022-12-07T07:25:33;99736.72;;;4.62;80.65
70841;BME280;58465;51.534;9.934;2022-12-07T07:27:58;99739.34;;;4.74;80.86
70841;BME280;58465;51.534;9.934;2022-12-07T07:30:24;99733.16;;;4.76;80.70
70841;BME280;58465;51.534;9.934;2022-12-07T07:32:49;99739.31;;;4.83;80.60
70841;BME280;58465;51.534;9.934;2022-12-07T07:35:14;99739.34;;;4.80;80.63
70841;BME280;58465;51.534;9.934;2022-12-07T07:37:41;99741.03;;;4.93;80.37
70841;BME280;58465;51.534;9.934;2022-12-07T07:40:07;99733.97;;;4.92;79.70
70841;BME280;58465;51.534;9.934;2022-12-07T07:42:32;99735.69;;;5.01;79.58
70841;BME280;58465;51.534;9.934;2022-12-07T07:44:58;99739.16;;;5.10;79.68
70841;BME280;58465;51.534;9.934;2022-12-07T07:47:23;99735.63;;;5.11;79.49
70841;BME280;58465;51.534;9.934;2022-12-07T07:49:48;99736.50;;;5.13;79.07
70841;BME280;58465;51.534;9.934;2022-12-07T07:52:13;99727.69;;;5.10;78.95
70841;BME280;58465;51.534;9.934;2022-12-07T07:54:39;99740.94;;;5.13;78.72
70841;BME280;58465;51.534;9.934;2022-12-07T07:57:04;99747.09;;;5.16;78.60
70841;BME280;58465;51.534;9.934;2022-12-07T07:59:29;99751.44;;;5.23;78.29
70841;BME280;58465;51.534;9.934;2022-12-07T08:01:55;99756.75;;;5.28;78.05
70841;BME280;58465;51.534;9.934;2022-12-07T08:04:20;99744.34;;;5.33;77.89
70841;BME280;58465;51.534;9.934;2022-12-07T08:06:45;99749.56;;;5.41;77.16
70841;BME280;58465;51.534;9.934;2022-12-07T08:09:11;99746.91;;;5.45;76.97
70841;BME280;58465;51.534;9.934;2022-12-07T08:11:37;99752.16;;;5.48;76.89
70841;BME280;58465;51.534;9.934;2022-12-07T08:14:02;99746.91;;;5.42;76.96
70841;BME280;58465;51.534;9.934;2022-12-07T08:16:28;99745.97;;;5.51;76.64
70841;BME280;58465;51.534;9.934;2022-12-07T08:18:53;99755.69;;;5.53;76.47
70841;BME280;58465;51.534;9.934;2022-12-07T08:21:19;99752.16;;;5.56;76.02
70841;BME280;58465;51.534;9.934;2022-12-07T08:23:44;99751.22;;;5.60;76.11
70841;BME280;58465;51.534;9.934;2022-12-07T08:26:13;99749.50;;;5.50;76.00
70841;BME280;58465;51.534;9.934;2022-12-07T08:28:38;99752.16;;;5.48;75.32
70841;BME280;58465;51.534;9.934;2022-12-07T08:31:10;99759.22;;;5.49;75.54
70841;BME280;58465;51.534;9.934;2022-12-07T08:33:36;99755.75;;;5.40;75.79
70841;BME280;58465;51.534;9.934;2022-12-07T08:36:04;99752.28;;;5.33;75.63
70841;BME280;58465;51.534;9.934;2022-12-07T08:38:30;99756.69;;;5.36;76.04
70841;BME280;58465;51.534;9.934;2022-12-07T08:40:56;99760.16;;;5.41;76.11
70841;BME280;58465;51.534;9.934;2022-12-07T08:43:22;99768.09;;;5.47;75.72
70841;BME280;58465;51.534;9.934;2022-12-07T08:45:49;99775.09;;;5.52;75.44
70841;BME280;58465;51.534;9.934;2022-12-07T08:48:16;99775.03;;;5.65;75.55
70841;BME280;58465;51.534;9.934;2022-12-07T08:50:47;99774.03;;;5.79;74.92
70841;BME280;58465;51.534;9.934;2022-12-07T08:53:12;99781.16;;;5.70;75.19
70841;BME280;58465;51.534;9.934;2022-12-07T08:55:38;99775.16;;;5.45;75.94
70841;BME280;58465;51.534;9.934;2022-12-07T08:58:03;99780.53;;;5.36;76.14
70841;BME280;58465;51.534;9.934;2022-12-07T09:00:28;99777.94;;;5.25;76.78
70841;BME280;58465;51.534;9.934;2022-12-07T09:02:54;99770.00;;;5.22;77.24
70841;BME280;58465;51.534;9.934;2022-12-07T09:05:19;99769.13;;;5.20;77.55
70841;BME280;58465;51.534;9.934;2022-12-07T09:07:48;99772.59;;;5.33;77.46
70841;BME280;58465;51.534;9.934;2022-12-07T09:10:17;99767.22;;;5.40;77.35
70841;BME280;58465;51.534;9.934;2022-12-07T09:12:42;99766.28;;;5.50;77.06
70841;BME280;58465;51.534;9.934;2022-12-07T09:15:08;99764.50;;;5.54;76.71
70841;BME280;58465;51.534;9.934;2022-12-07T09:17:34;99761.84;;;5.55;76.58
70841;BME280;58465;51.534;9.934;2022-12-07T09:19:59;99768.81;;;5.67;76.26
70841;BME280;58465;51.534;9.934;2022-12-07T09:22:29;99765.97;;;5.96;75.58
70841;BME280;58465;51.534;9.934;2022-12-07T09:24:56;99768.59;;;6.04;74.42
70841;BME280;58465;51.534;9.934;2022-12-07T09:27:21;99767.53;;;6.23;74.44
70841;BME280;58465;51.534;9.934;2022-12-07T09:29:46;99772.78;;;6.27;73.71
70841;BME280;58465;51.534;9.934;2022-12-07T09:32:11;99779.81;;;6.31;73.75
70841;BME280;58465;51.534;9.934;2022-12-07T09:34:38;99763.78;;;6.44;72.74
70841;BME280;58465;51.534;9.934;2022-12-07T09:37:03;99760.28;;;6.37;72.98
70841;BME280;58465;51.534;9.934;2022-12-07T09:39:29;99754.03;;;6.44;72.59
70841;BME280;58465;51.534;9.934;2022-12-07T09:41:54;99773.44;;;6.48;72.69
70841;BME280;58465;51.534;9.934;2022-12-07T09:44:25;99761.84;;;6.58;72.58
70841;BME280;58465;51.534;9.934;2022-12-07T09:46:50;99776.91;;;6.54;72.24
70841;BME280;58465;51.534;9.934;2022-12-07T09:49:20;99774.34;;;6.45;72.35
70841;BME280;58465;51.534;9.934;2022-12-07T09:51:46;99770.88;;;6.42;72.45
70841;BME280;58465;51.534;9.934;2022-12-07T09:54:14;99768.22;;;6.43;72.73
70841;BME280;58465;51.534;9.934;2022-12-07T09:56:39;99767.94;;;6.67;72.12
70841;BME280;58465;51.534;9.934;2022-12-07T09:59:05;99762.50;;;6.78;71.69
70841;BME280;58465;51.534;9.934;2022-12-07T10:01:32;99765.78;;;7.00;70.68
70841;BME280;58465;51.534;9.934;2022-12-07T10:04:29;99765.13;;;6.81;70.64
70841;BME280;58465;51.534;9.934;2022-12-07T10:06:54;99761.75;;;6.65;71.13
70841;BME280;58465;51.534;9.934;2022-12-07T10:09:21;99759.88;;;6.74;70.89
70841;BME280;58465;51.534;9.934;2022-12-07T10:14:27;99765.72;;;7.03;70.24
70841;BME280;58465;51.534;9.934;2022-12-07T10:16:53;99750.81;;;6.93;70.01
70841;BME280;58465;51.534;9.934;2022-12-07T10:19:30;99751.81;;;6.84;70.25
70841;BME280;58465;51.534;9.934;2022-12-07T10:22:12;99751.75;;;6.92;70.04
70841;BME280;58465;51.534;9.934;2022-12-07T10:24:39;99756.19;;;6.87;69.70
70841;BME280;58465;51.534;9.934;2022-12-07T10:27:21;99752.00;;;6.69;70.17
70841;BME280;58465;51.534;9.934;2022-12-07T10:29:49;99756.44;;;6.65;70.11
70841;BME280;58465;51.534;9.934;2022-12-07T10:34:40;99746.88;;;6.52;70.73
70841;BME280;58465;51.534;9.934;2022-12-07T10:40:00;99749.66;;;6.42;71.03
70841;BME280;58465;51.534;9.934;2022-12-07T10:42:26;99747.00;;;6.43;71.41
70841;BME280;58465;51.534;9.934;2022-12-07T10:45:14;99750.53;;;6.44;70.94
70841;BME280;58465;51.534;9.934;2022-12-07T11:04:28;99749.31;;;6.72;68.71
70841;BME280;58465;51.534;9.934;2022-12-07T11:07:05;99749.25;;;6.75;68.85
70841;BME280;58465;51.534;9.934;2022-12-07T11:17:35;99727.22;;;6.68;68.96
70841;BME280;58465;51.534;9.934;2022-12-07T11:23:10;99738.94;;;6.51;68.67
70841;BME280;58465;51.534;9.934;2022-12-07T11:28:25;99725.13;;;6.18;69.87
70841;BME280;58465;51.534;9.934;2022-12-07T11:31:07;99725.19;;;6.12;70.29
70841;BME280;58465;51.534;9.934;2022-12-07T11:33:47;99715.38;;;6.23;70.03
70841;BME280;58465;51.534;9.934;2022-12-07T11:38:58;99725.44;;;6.72;68.27
70841;BME280;58465;51.534;9.934;2022-12-07T11:41:38;99727.00;;;6.87;67.80
70841;BME280;58465;51.534;9.934;2022-12-07T11:44:24;99719.91;;;6.89;67.32
70841;BME280;58465;51.534;9.934;2022-12-07T11:47:08;99720.97;;;6.74;67.75
70841;BME280;58465;51.534;9.934;2022-12-07T11:52:26;99715.53;;;6.83;67.63
70841;BME280;58465;51.534;9.934;2022-12-07T11:54:53;99714.78;;;6.74;68.04
70841;BME280;58465;51.534;9.934;2022-12-07T11:57:35;99714.81;;;6.72;68.13
70841;BME280;58465;51.534;9.934;2022-12-07T12:00:08;99705.25;;;6.56;68.68
70841;BME280;58465;51.534;9.934;2022-12-07T12:02:45;99705.22;;;6.62;69.16
70841;BME280;58465;51.534;9.934;2022-12-07T12:05:17;99711.47;;;6.55;68.92
70841;BME280;58465;51.534;9.934;2022-12-07T12:07:44;99701.81;;;6.49;69.08
70841;BME280;58465;51.534;9.934;2022-12-07T12:10:30;99714.00;;;6.65;68.94
70841;BME280;58465;51.534;9.934;2022-12-07T12:13:21;99707.72;;;6.73;68.51
70841;BME280;58465;51.534;9.934;2022-12-07T12:16:13;99704.34;;;6.60;68.58
70841;BME280;58465;51.534;9.934;2022-12-07T12:19:19;99699.03;;;6.61;68.52
70841;BME280;58465;51.534;9.934;2022-12-07T12:21:48;99694.78;;;6.45;68.81
70841;BME280;58465;51.534;9.934;2022-12-07T12:24:23;99695.06;;;6.93;68.64
70841;BME280;58465;51.534;9.934;2022-12-07T12:26:53;99705.38;;;7.16;67.53
70841;BME280;58465;51.534;9.934;2022-12-07T12:29:28;99694.75;;;7.14;67.08
70841;BME280;58465;51.534;9.934;2022-12-07T12:32:17;99692.22;;;7.08;66.50
70841;BME280;58465;51.534;9.934;2022-12-07T12:42:54;99684.50;;;6.90;67.50
70841;BME280;58465;51.534;9.934;2022-12-07T12:45:25;99688.72;;;7.03;66.99
70841;BME280;58465;51.534;9.934;2022-12-07T12:50:47;99686.66;;;7.23;66.61
70841;BME280;58465;51.534;9.934;2022-12-07T12:53:23;99677.03;;;7.16;66.72
70841;BME280;58465;51.534;9.934;2022-12-07T12:59:22;99669.06;;;7.18;66.20
70841;BME280;58465;51.534;9.934;2022-12-07T13:01:50;99667.16;;;7.26;66.71
70841;BME280;58465;51.534;9.934;2022-12-07T13:04:27;99668.78;;;7.36;66.54
70841;BME280;58465;51.534;9.934;2022-12-07T13:06:53;99663.59;;;7.27;66.20
70841;BME280;58465;51.534;9.934;2022-12-07T13:09:26;99665.69;;;7.05;66.51
70841;BME280;58465;51.534;9.934;2022-12-07T13:12:00;99666.41;;;7.16;66.85
70841;BME280;58465;51.534;9.934;2022-12-07T13:14:52;99660.31;;;7.10;67.38
70841;BME280;58465;51.534;9.934;2022-12-07T13:20:00;99660.63;;;6.87;68.05
70841;BME280;58465;51.534;9.934;2022-12-07T13:24:58;99648.41;;;6.75;67.60
70841;BME280;58465;51.534;9.934;2022-12-07T13:27:28;99658.22;;;6.70;67.80
70841;BME280;58465;51.534;9.934;2022-12-07T13:29:56;99653.94;;;6.58;68.27
70841;BME280;58465;51.534;9.934;2022-12-07T13:32:25;99656.63;;;6.54;68.56
70841;BME280;58465;51.534;9.934;2022-12-07T13:34:50;99647.78;;;6.56;67.83
70841;BME280;58465;51.534;9.934;2022-12-07T13:37:30;99649.44;;;6.63;67.97
70841;BME280;58465;51.534;9.934;2022-12-07T13:39:59;99653.84;;;6.64;67.56
70841;BME280;58465;51.534;9.934;2022-12-07T13:42:34;99654.59;;;6.74;67.60
70841;BME280;58465;51.534;9.934;2022-12-07T13:45:20;99652.84;;;6.75;67.58
70841;BME280;58465;51.534;9.934;2022-12-07T13:47:52;99653.81;;;6.69;67.28
70841;BME280;58465;51.534;9.934;2022-12-07T13:50:29;99667.19;;;6.61;67.49
70841;BME280;58465;51.534;9.934;2022-12-07T13:52:58;99659.13;;;6.67;67.36
70841;BME280;58465;51.534;9.934;2022-12-07T13:55:24;99643.97;;;6.76;67.14
70841;BME280;58465;51.534;9.934;2022-12-07T13:57:51;99646.53;;;6.83;66.82
70841;BME280;58465;51.534;9.934;2022-12-07T14:00:25;99642.94;;;6.86;66.85
70841;BME280;58465;51.534;9.934;2022-12-07T14:05:35;99645.72;;;6.77;66.96
70841;BME280;58465;51.534;9.934;2022-12-07T14:08:22;99640.47;;;6.74;66.93
70841;BME280;58465;51.534;9.934;2022-12-07T14:13:36;99635.31;;;6.63;67.22
70841;BME280;58465;51.534;9.934;2022-12-07T14:16:22;99635.38;;;6.57;67.02
70841;BME280;58465;51.534;9.934;2022-12-07T14:18:49;99636.41;;;6.45;67.40
70841;BME280;58465;51.534;9.934;2022-12-07T14:21:19;99639.91;;;6.49;67.67
70841;BME280;58465;51.534;9.934;2022-12-07T14:23:45;99632.81;;;6.51;67.17
70841;BME280;58465;51.534;9.934;2022-12-07T14:26:20;99627.53;;;6.49;67.27
70841;BME280;58465;51.534;9.934;2022-12-07T14:28:46;99621.38;;;6.46;67.16
70841;BME280;58465;51.534;9.934;2022-12-07T14:31:17;99632.03;;;6.43;67.28
70841;BME280;58465;51.534;9.934;2022-12-07T14:33:43;99632.00;;;6.44;67.56
70841;BME280;58465;51.534;9.934;2022-12-07T14:36:13;99626.88;;;6.29;67.91
70841;BME280;58465;51.534;9.934;2022-12-07T14:38:38;99640.13;;;6.30;68.15
70841;BME280;58465;51.534;9.934;2022-12-07T14:41:04;99636.63;;;6.28;68.11
70841;BME280;58465;51.534;9.934;2022-12-07T14:43:54;99632.09;;;6.38;67.95
70841;BME280;58465;51.534;9.934;2022-12-07T14:46:19;99629.53;;;6.30;68.12
70841;BME280;58465;51.534;9.934;2022-12-07T14:48:44;99626.09;;;6.22;68.40
70841;BME280;58465;51.534;9.934;2022-12-07T14:51:12;99624.38;;;6.18;68.57
70841;BME280;58465;51.534;9.934;2022-12-07T14:53:45;99622.66;;;6.13;68.53
70841;BME280;58465;51.534;9.934;2022-12-07T14:56:11;99624.47;;;6.09;68.86
70841;BME280;58465;51.534;9.934;2022-12-07T14:58:36;99623.56;;;6.12;68.70
70841;BME280;58465;51.534;9.934;2022-12-07T15:01:02;99622.69;;;6.11;68.84